createdAt,value
2022-12-07T00:01:57.256Z,73.09
2022-12-07T00:04:23.652Z,73.11
2022-12-07T00:06:53.621Z,73.51
2022-12-07T00:09:20.501Z,73.28
2022-12-07T00:11:50.332Z,73.93
2022-12-07T00:14:18.065Z,74.79
2022-12-07T00:16:45.123Z,74.18
2022-12-07T00:19:13.368Z,73.37
2022-12-07T00:21:40.108Z,74.03
2022-12-07T00:24:07.284Z,74.39
2022-12-07T00:26:36.429Z,73.70
2022-12-07T00:29:06.328Z,74.97
2022-12-07T00:31:36.737Z,73.52
2022-12-07T00:34:03.166Z,75.19
2022-12-07T00:36:29.589Z,74.26
2022-12-07T00:38:58.261Z,73.85
2022-12-07T00:41:26.433Z,73.54
2022-12-07T00:43:53.261Z,73.98
2022-12-07T00:46:20.915Z,73.70
2022-12-07T00:48:48.432Z,74.24
2022-12-07T00:51:16.677Z,75.02
2022-12-07T00:53:43.376Z,74.72
2022-12-07T00:56:13.190Z,74.50
2022-12-07T00:58:39.550Z,73.87
2022-12-07T01:01:07.607Z,74.79
2022-12-07T01:03:34.618Z,74.94
2022-12-07T01:06:02.054Z,74.49
2022-12-07T01:08:29.277Z,75.75
2022-12-07T01:11:04.736Z,75.21
2022-12-07T01:13:32.218Z,74.65
2022-12-07T01:16:00.774Z,75.81
2022-12-07T01:18:29.128Z,75.87
2022-12-07T01:21:03.964Z,76.59
2022-12-07T01:23:31.259Z,75.30
2022-12-07T01:25:58.945Z,74.89
2022-12-07T01:28:26.012Z,77.00
2022-12-07T01:31:15.842Z,76.17
2022-12-07T01:33:45.218Z,76.18
2022-12-07T01:36:17.750Z,75.61
2022-12-07T01:38:45.913Z,76.29
2022-12-07T01:41:13.642Z,75.43
2022-12-07T01:44:11.651Z,75.14
2022-12-07T01:46:38.936Z,76.39
2022-12-07T01:49:09.335Z,76.29
2022-12-07T01:51:38.604Z,75.08
2022-12-07T01:54:05.203Z,75.63
2022-12-07T01:56:33.247Z,74.94
2022-12-07T01:59:01.355Z,76.78
2022-12-07T02:01:27.906Z,76.50
2022-12-07T02:03:54.905Z,76.25
2022-12-07T02:06:25.249Z,75.08
2022-12-07T02:08:51.646Z,75.30
2022-12-07T02:11:19.186Z,75.51
2022-12-07T02:13:47.263Z,75.02
2022-12-07T02:16:19.512Z,76.78
2022-12-07T02:18:46.259Z,76.75
2022-12-07T02:21:17.740Z,75.51
2022-12-07T02:23:56.507Z,75.82
2022-12-07T02:26:41.039Z,76.01
2022-12-07T02:29:23.136Z,75.81
2022-12-07T02:32:16.541Z,76.15
2022-12-07T02:34:48.918Z,76.68
2022-12-07T02:37:27.996Z,76.76
2022-12-07T02:40:00.682Z,76.08
2022-12-07T02:42:37.355Z,77.14
2022-12-07T02:45:05.955Z,77.47
2022-12-07T02:47:34.229Z,75.74
2022-12-07T02:50:03.504Z,76.44
2022-12-07T02:52:29.981Z,77.76
2022-12-07T02:54:56.368Z,77.04
2022-12-07T02:57:50.723Z,76.77
2022-12-07T03:00:19.951Z,76.65
2022-12-07T03:03:04.784Z,77.98
2022-12-07T03:05:55.372Z,77.06
2022-12-07T03:08:32.841Z,77.21
2022-12-07T03:11:03.696Z,77.72
2022-12-07T03:13:45.250Z,77.11
2022-12-07T03:16:22.540Z,77.56
2022-12-07T03:18:56.871Z,78.19
2022-12-07T03:21:28.035Z,78.42
2022-12-07T03:24:01.110Z,78.91
2022-12-07T03:26:36.400Z,79.61
2022-12-07T03:29:08.720Z,79.23
2022-12-07T03:31:41.416Z,79.57
2022-12-07T03:34:37.300Z,78.42
2022-12-07T03:37:15.470Z,79.79
2022-12-07T03:40:05.272Z,79.13
2022-12-07T03:42:33.564Z,79.33
2022-12-07T03:45:01.733Z,80.33
2022-12-07T03:47:35.064Z,79.83
2022-12-07T03:50:18.503Z,79.64
2022-12-07T03:52:54.655Z,80.53
2022-12-07T03:55:27.198Z,79.95
2022-12-07T03:57:57.648Z,80.68
2022-12-07T04:00:24.195Z,80.58
2022-12-07T04:02:53.731Z,80.32
2022-12-07T04:05:20.581Z,81.15
2022-12-07T04:07:47.257Z,80.63
2022-12-07T04:10:14.414Z,79.69
2022-12-07T04:12:40.860Z,79.85
2022-12-07T04:15:08.051Z,80.85
2022-12-07T04:17:34.512Z,80.04
2022-12-07T04:20:01.382Z,80.74
2022-12-07T04:22:28.120Z,80.18
2022-12-07T04:24:54.506Z,79.87
2022-12-07T04:27:20.875Z,79.43
2022-12-07T04:29:47.292Z,79.87
2022-12-07T04:32:13.681Z,79.58
2022-12-07T04:34:40.167Z,80.57
2022-12-07T04:37:06.559Z,79.55
2022-12-07T04:39:34.600Z,81.48
2022-12-07T04:42:01.532Z,80.74
2022-12-07T04:44:29.109Z,80.59
2022-12-07T04:46:56.084Z,80.71
2022-12-07T04:49:22.630Z,81.40
2022-12-07T04:51:49.001Z,81.75
2022-12-07T04:54:16.803Z,80.64
2022-12-07T04:56:44.855Z,80.67
2022-12-07T04:59:16.630Z,80.88
2022-12-07T05:01:43.475Z,81.02
2022-12-07T05:04:10.544Z,79.94
2022-12-07T05:06:37.000Z,81.17
2022-12-07T05:09:04.673Z,80.79
2022-12-07T05:11:40.515Z,80.63
2022-12-07T05:14:21.690Z,80.42
2022-12-07T05:16:50.677Z,81.59
2022-12-07T05:19:18.596Z,80.26
2022-12-07T05:21:45.354Z,81.30
2022-12-07T05:24:13.771Z,81.61
2022-12-07T05:26:40.756Z,81.98
2022-12-07T05:29:07.210Z,79.79
2022-12-07T05:31:35.111Z,81.64
2022-12-07T05:34:01.695Z,81.31
2022-12-07T05:36:29.589Z,81.46
2022-12-07T05:38:56.117Z,80.75
2022-12-07T05:41:40.773Z,81.82
2022-12-07T05:44:07.226Z,82.28
2022-12-07T05:46:34.155Z,81.75
2022-12-07T05:49:00.987Z,80.26
2022-12-07T05:51:27.598Z,81.41
2022-12-07T05:53:54.201Z,82.10
2022-12-07T05:56:20.892Z,81.35
2022-12-07T05:59:05.669Z,80.29
2022-12-07T06:01:32.177Z,80.53
2022-12-07T06:03:58.608Z,81.08
2022-12-07T06:06:25.098Z,80.43
2022-12-07T06:08:51.879Z,82.45
2022-12-07T06:11:36.821Z,82.02
2022-12-07T06:14:03.374Z,81.32
2022-12-07T06:16:29.904Z,81.51
2022-12-07T06:18:56.506Z,81.58
2022-12-07T06:21:22.895Z,81.66
2022-12-07T06:23:49.276Z,80.21
2022-12-07T06:26:15.715Z,80.70
2022-12-07T06:28:42.081Z,81.61
2022-12-07T06:31:13.629Z,80.10
2022-12-07T06:33:41.125Z,80.23
2022-12-07T06:36:08.116Z,80.31
2022-12-07T06:38:34.532Z,79.01
2022-12-07T06:41:00.974Z,79.26
2022-12-07T06:43:28.242Z,78.97
2022-12-07T06:45:55.010Z,77.55
2022-12-07T06:48:21.879Z,77.68
2022-12-07T06:50:54.437Z,77.47
2022-12-07T06:53:21.877Z,77.71
2022-12-07T06:55:48.336Z,76.78
2022-12-07T06:58:14.696Z,76.98
2022-12-07T07:00:41.612Z,77.03
2022-12-07T07:03:08.141Z,75.79
2022-12-07T07:05:34.549Z,76.89
2022-12-07T07:10:47.456Z,75.75
2022-12-07T07:13:13.908Z,76.42
2022-12-07T07:15:40.308Z,76.69
2022-12-07T07:18:08.091Z,76.30
2022-12-07T07:20:34.743Z,77.07
2022-12-07T07:23:01.160Z,76.12
2022-12-07T07:25:27.646Z,76.46
2022-12-07T07:27:54.036Z,76.66
2022-12-07T07:30:20.480Z,76.31
2022-12-07T07:32:47.077Z,75.89
2022-12-07T07:35:15.037Z,76.15
2022-12-07T07:37:41.836Z,76.54
2022-12-07T07:40:09.593Z,76.43
2022-12-07T07:42:36.307Z,76.39
2022-12-07T07:45:02.919Z,76.62
2022-12-07T07:47:30.004Z,76.46
2022-12-07T07:49:56.400Z,76.87
2022-12-07T07:52:22.763Z,75.28
2022-12-07T07:54:49.125Z,75.06
2022-12-07T07:57:17.571Z,76.21
2022-12-07T07:59:43.971Z,75.51
2022-12-07T08:02:15.757Z,75.22
2022-12-07T08:04:42.680Z,75.57
2022-12-07T08:07:09.167Z,75.52
2022-12-07T08:09:35.528Z,75.53
2022-12-07T08:12:02.039Z,76.27
2022-12-07T08:14:29.673Z,75.04
2022-12-07T08:16:56.079Z,76.35
2022-12-07T08:19:22.657Z,76.33
2022-12-07T08:21:49.035Z,75.57
2022-12-07T08:24:15.965Z,76.11
2022-12-07T08:26:42.692Z,76.15
2022-12-07T08:29:09.231Z,75.11
2022-12-07T08:31:35.868Z,75.28
2022-12-07T08:34:02.442Z,75.13
2022-12-07T08:36:28.948Z,74.57
2022-12-07T08:39:30.434Z,74.26
2022-12-07T08:41:41.713Z,74.54
2022-12-07T08:44:08.089Z,74.63
2022-12-07T08:46:49.052Z,74.70
2022-12-07T08:49:39.931Z,73.81
2022-12-07T08:52:06.926Z,73.45
2022-12-07T08:54:36.784Z,73.90
2022-12-07T08:57:03.983Z,73.08
2022-12-07T08:59:30.881Z,73.08
2022-12-07T09:01:57.498Z,72.81
2022-12-07T09:04:23.991Z,73.82
2022-12-07T09:06:50.414Z,73.58
2022-12-07T09:09:16.853Z,72.71
2022-12-07T09:11:43.658Z,72.53
2022-12-07T09:14:10.141Z,72.24
2022-12-07T09:16:36.549Z,72.46
2022-12-07T09:19:03.232Z,72.59
2022-12-07T09:21:29.815Z,72.28
2022-12-07T09:23:56.228Z,71.59
2022-12-07T09:26:22.976Z,72.41
2022-12-07T09:28:49.399Z,71.82
2022-12-07T09:31:24.778Z,71.74
2022-12-07T09:33:59.825Z,72.20
2022-12-07T09:36:27.756Z,72.44
2022-12-07T09:38:54.215Z,71.80
2022-12-07T09:41:21.911Z,71.77
2022-12-07T09:43:48.415Z,72.40
2022-12-07T09:46:18.292Z,71.29
2022-12-07T09:48:45.843Z,71.01
2022-12-07T09:51:24.950Z,71.56
2022-12-07T09:53:53.992Z,71.12
2022-12-07T09:56:21.672Z,71.95
2022-12-07T09:58:49.321Z,72.54
2022-12-07T10:01:21.624Z,73.03
2022-12-07T10:03:59.858Z,72.71
2022-12-07T10:06:26.278Z,71.85
2022-12-07T10:08:52.771Z,72.73
2022-12-07T10:11:19.266Z,73.53
2022-12-07T10:13:54.056Z,73.21
2022-12-07T10:16:41.713Z,72.83
2022-12-07T10:19:26.219Z,72.02
2022-12-07T10:22:09.085Z,72.00
2022-12-07T10:24:35.589Z,72.30
2022-12-07T10:27:02.059Z,74.15
2022-12-07T10:29:39.683Z,72.66
2022-12-07T10:32:15.650Z,72.73
2022-12-07T10:34:46.166Z,72.50
2022-12-07T10:37:17.908Z,71.95
2022-12-07T10:39:47.102Z,71.59
2022-12-07T10:42:19.913Z,72.04
2022-12-07T10:44:47.525Z,72.42
2022-12-07T10:47:30.687Z,72.70
2022-12-07T10:50:37.367Z,72.42
2022-12-07T10:53:33.558Z,71.38
2022-12-07T10:56:35.399Z,72.49
2022-12-07T10:59:15.798Z,72.97
2022-12-07T11:02:16.222Z,73.39
2022-12-07T11:05:07.477Z,73.53
2022-12-07T11:07:53.561Z,72.59
2022-12-07T11:10:40.632Z,72.43
2022-12-07T11:13:29.349Z,71.80
2022-12-07T11:16:17.126Z,72.91
2022-12-07T11:18:57.421Z,73.36
2022-12-07T11:21:53.704Z,72.33
2022-12-07T11:24:44.745Z,71.60
2022-12-07T11:27:29.885Z,72.52
2022-12-07T11:30:23.656Z,73.39
2022-12-07T11:33:30.957Z,72.71
2022-12-07T11:36:27.588Z,73.05
2022-12-07T11:38:58.704Z,72.71
2022-12-07T11:41:30.807Z,72.87
2022-12-07T11:44:03.795Z,72.93
2022-12-07T11:46:46.194Z,72.73
2022-12-07T11:49:31.784Z,72.87
2022-12-07T11:52:03.762Z,72.87
2022-12-07T11:54:41.900Z,72.56
2022-12-07T11:57:20.550Z,74.26
2022-12-07T11:59:52.824Z,72.95
2022-12-07T12:02:35.154Z,73.31
2022-12-07T12:05:16.312Z,73.48
2022-12-07T12:11:06.232Z,72.71
2022-12-07T12:17:36.592Z,73.27
2022-12-07T12:20:35.055Z,72.74
2022-12-07T12:23:16.497Z,72.39
2022-12-07T12:25:45.860Z,72.73
2022-12-07T12:28:30.785Z,73.15
2022-12-07T12:31:29.701Z,73.49
2022-12-07T12:33:58.911Z,73.58
2022-12-07T12:36:26.040Z,72.21
2022-12-07T12:39:07.670Z,73.03
2022-12-07T12:41:57.617Z,72.22
2022-12-07T12:44:24.000Z,72.91
2022-12-07T12:46:55.386Z,72.50
2022-12-07T12:49:21.708Z,72.16
2022-12-07T12:52:00.943Z,72.32
2022-12-07T12:54:31.374Z,72.61
2022-12-07T12:57:27.640Z,73.10
2022-12-07T12:59:53.987Z,72.39
2022-12-07T13:02:32.595Z,72.31
2022-12-07T13:05:08.730Z,72.39
2022-12-07T13:07:53.800Z,72.54
2022-12-07T13:10:33.001Z,71.59
2022-12-07T13:13:02.349Z,72.21
2022-12-07T13:15:40.118Z,71.41
2022-12-07T13:18:28.333Z,71.85
2022-12-07T13:20:54.708Z,72.77
2022-12-07T13:23:25.330Z,72.65
2022-12-07T13:26:15.568Z,71.65
2022-12-07T13:28:46.659Z,72.65
2022-12-07T13:31:33.260Z,72.19
2022-12-07T13:34:00.408Z,71.46
2022-12-07T13:36:28.438Z,71.25
2022-12-07T13:39:00.313Z,72.93
2022-12-07T13:41:30.633Z,71.89
2022-12-07T13:44:10.571Z,72.87
2022-12-07T13:46:44.087Z,72.36
2022-12-07T13:49:30.845Z,72.17
2022-12-07T13:52:19.842Z,71.81
2022-12-07T13:55:16.670Z,72.61
2022-12-07T13:57:45.500Z,71.26
2022-12-07T14:00:18.859Z,72.17
2022-12-07T14:03:03.964Z,72.19
2022-12-07T14:05:36.243Z,71.28
2022-12-07T14:08:05.330Z,71.40
2022-12-07T14:10:34.013Z,71.42
2022-12-07T14:13:02.470Z,71.18
2022-12-07T14:15:34.465Z,70.68
2022-12-07T14:18:04.676Z,70.84
2022-12-07T14:20:32.159Z,71.54
2022-12-07T14:22:58.530Z,71.30
2022-12-07T14:25:27.646Z,72.05
2022-12-07T14:27:58.597Z,72.20
2022-12-07T14:30:28.784Z,70.70
2022-12-07T14:32:59.929Z,69.75
2022-12-07T14:35:27.069Z,68.99
2022-12-07T14:37:54.050Z,69.07
2022-12-07T14:40:25.939Z,70.50
2022-12-07T14:42:57.580Z,69.83
2022-12-07T14:45:24.737Z,69.59
2022-12-07T14:53:36.847Z,69.76
2022-12-07T14:56:06.465Z,70.51
2022-12-07T14:58:33.497Z,71.74
2022-12-07T15:01:00.950Z,70.69
2022-12-07T15:03:27.511Z,71.69
2022-12-07T15:05:53.921Z,72.19
2022-12-07T15:08:21.001Z,70.39
2022-12-07T15:10:47.640Z,71.34
2022-12-07T15:13:36.913Z,72.49
2022-12-07T15:16:03.935Z,71.64
2022-12-07T15:18:30.416Z,71.31
2022-12-07T15:20:56.839Z,71.60
2022-12-07T15:23:23.412Z,72.07
2022-12-07T15:25:49.958Z,72.36
2022-12-07T15:28:16.942Z,70.98
2022-12-07T15:30:45.449Z,70.80
2022-12-07T15:33:13.500Z,70.92
2022-12-07T15:35:41.657Z,70.88
2022-12-07T15:38:09.098Z,70.27
2022-12-07T15:40:36.074Z,70.00
2022-12-07T15:43:03.386Z,69.38
2022-12-07T15:45:29.892Z,69.85
2022-12-07T15:48:26.858Z,70.48
2022-12-07T15:50:43.275Z,71.15
2022-12-07T15:53:09.657Z,71.51
2022-12-07T15:55:36.054Z,71.18
2022-12-07T15:58:02.509Z,71.33
2022-12-07T16:00:28.935Z,71.45
2022-12-07T16:02:55.364Z,72.37
2022-12-07T16:05:21.980Z,71.27
2022-12-07T16:07:48.555Z,71.54
2022-12-07T16:10:15.137Z,71.35
2022-12-07T16:12:41.583Z,72.43
2022-12-07T16:15:08.436Z,71.07
2022-12-07T16:17:35.018Z,72.43
2022-12-07T16:20:01.591Z,72.17
2022-12-07T16:22:28.001Z,72.18
2022-12-07T16:24:54.443Z,72.13
2022-12-07T16:27:20.867Z,72.07
2022-12-07T16:29:47.266Z,72.41
2022-12-07T16:32:13.649Z,71.70
2022-12-07T16:34:40.689Z,72.68
2022-12-07T16:37:07.326Z,72.65
2022-12-07T16:39:35.298Z,71.55
2022-12-07T16:42:02.001Z,72.17
2022-12-07T16:44:29.057Z,72.54
2022-12-07T16:46:55.657Z,71.70
2022-12-07T16:49:22.215Z,71.17
2022-12-07T16:52:08.830Z,72.71
2022-12-07T16:54:37.706Z,72.91
2022-12-07T16:57:04.225Z,72.54
2022-12-07T16:59:30.734Z,71.71
2022-12-07T17:01:57.245Z,71.65
2022-12-07T17:04:23.717Z,72.60
2022-12-07T17:06:50.211Z,71.51
2022-12-07T17:09:21.128Z,72.27
2022-12-07T17:11:48.359Z,72.17
2022-12-07T17:14:33.302Z,72.40
2022-12-07T17:17:00.893Z,72.10
2022-12-07T17:19:27.568Z,72.46
2022-12-07T17:21:54.233Z,73.56
2022-12-07T17:24:20.731Z,72.46
2022-12-07T17:26:47.878Z,73.61
2022-12-07T17:29:16.415Z,72.72
2022-12-07T17:31:46.377Z,72.71
2022-12-07T17:34:17.733Z,73.45
2022-12-07T17:36:45.856Z,72.50
2022-12-07T17:39:17.026Z,73.37
2022-12-07T17:42:02.166Z,72.62
2022-12-07T17:44:29.346Z,72.53
2022-12-07T17:47:02.237Z,72.35
2022-12-07T17:49:28.807Z,73.27
2022-12-07T17:52:14.090Z,73.67
2022-12-07T17:54:40.585Z,72.98
2022-12-07T17:57:07.380Z,72.46
2022-12-07T17:59:33.888Z,73.42
2022-12-07T18:02:00.531Z,72.17
2022-12-07T18:04:27.064Z,71.79
2022-12-07T18:06:53.573Z,72.20
2022-12-07T18:09:21.980Z,72.20
2022-12-07T18:11:48.422Z,73.04
2022-12-07T18:14:14.891Z,72.75
2022-12-07T18:16:41.445Z,72.28
2022-12-07T18:19:09.080Z,72.27
2022-12-07T18:21:36.022Z,70.45
2022-12-07T18:24:04.601Z,69.73
2022-12-07T18:26:33.354Z,70.53
2022-12-07T18:29:00.824Z,71.33
2022-12-07T18:31:28.369Z,72.56
2022-12-07T18:33:56.187Z,72.55
2022-12-07T18:36:24.153Z,72.42
2022-12-07T18:38:51.770Z,72.28
2022-12-07T18:41:18.793Z,72.40
2022-12-07T18:43:45.380Z,72.09
2022-12-07T18:46:13.610Z,71.28
2022-12-07T18:48:40.493Z,71.86
2022-12-07T18:51:09.785Z,70.90
2022-12-07T18:53:36.962Z,70.84
2022-12-07T18:56:11.612Z,69.03
2022-12-07T18:58:38.336Z,69.62
2022-12-07T19:01:05.006Z,68.79
2022-12-07T19:03:33.664Z,69.16
2022-12-07T19:06:06.252Z,71.15
2022-12-07T19:08:34.182Z,71.34
2022-12-07T19:11:23.764Z,70.75
2022-12-07T19:13:50.585Z,70.68
2022-12-07T19:16:17.132Z,70.47
2022-12-07T19:18:49.311Z,71.64
2022-12-07T19:21:17.773Z,71.36
2022-12-07T19:23:44.206Z,69.85
2022-12-07T19:26:10.924Z,72.41
2022-12-07T19:28:37.345Z,71.08
2022-12-07T19:31:07.486Z,71.57
2022-12-07T19:33:34.069Z,70.87
2022-12-07T19:36:00.655Z,70.75
2022-12-07T19:38:27.109Z,69.49
2022-12-07T19:40:53.530Z,69.90
2022-12-07T19:43:20.082Z,69.85
2022-12-07T19:45:47.154Z,69.54
2022-12-07T19:48:13.717Z,69.68
2022-12-07T19:50:40.360Z,69.87
2022-12-07T19:53:06.829Z,69.67
2022-12-07T19:55:40.281Z,69.98
2022-12-07T19:58:07.224Z,70.26
2022-12-07T20:00:33.621Z,67.92
2022-12-07T20:03:00.267Z,69.15
2022-12-07T20:05:26.799Z,68.32
2022-12-07T20:07:53.256Z,69.78
2022-12-07T20:10:25.783Z,70.05
2022-12-07T20:13:11.256Z,68.82
2022-12-07T20:15:38.503Z,69.34
2022-12-07T20:18:04.990Z,68.97
2022-12-07T20:20:31.406Z,68.20
2022-12-07T20:22:57.995Z,70.53
2022-12-07T20:25:24.416Z,69.80
2022-12-07T20:27:50.821Z,69.17
2022-12-07T20:30:17.329Z,69.73
2022-12-07T20:32:43.794Z,69.63
2022-12-07T20:35:10.304Z,70.35
2022-12-07T20:37:36.797Z,71.58
2022-12-07T20:40:03.388Z,71.46
2022-12-07T20:42:38.556Z,70.87
2022-12-07T20:45:08.372Z,72.17
2022-12-07T20:47:36.609Z,73.10
2022-12-07T20:50:04.557Z,71.97
2022-12-07T20:52:31.208Z,72.20
2022-12-07T20:54:57.607Z,72.17
2022-12-07T20:57:24.229Z,73.31
2022-12-07T20:59:50.712Z,72.22
2022-12-07T21:02:17.240Z,73.67
2022-12-07T21:04:43.820Z,72.84
2022-12-07T21:07:10.292Z,73.80
2022-12-07T21:09:37.024Z,73.75
2022-12-07T21:12:03.770Z,74.22
2022-12-07T21:14:30.352Z,74.38
2022-12-07T21:16:56.968Z,74.98
2022-12-07T21:19:24.894Z,73.44
2022-12-07T21:21:52.118Z,73.60
2022-12-07T21:24:18.531Z,74.53
2022-12-07T21:26:45.017Z,73.82
2022-12-07T21:29:11.436Z,75.48
2022-12-07T21:31:37.938Z,75.52
2022-12-07T21:34:05.326Z,73.78
2022-12-07T21:36:32.433Z,74.87
2022-12-07T21:38:58.895Z,75.01
2022-12-07T21:41:31.202Z,74.50
2022-12-07T21:43:58.170Z,73.53
2022-12-07T21:46:31.539Z,74.06
2022-12-07T21:49:01.869Z,75.71
2022-12-07T21:51:30.106Z,75.94
2022-12-07T21:53:58.818Z,75.19
2022-12-07T21:56:38.859Z,74.19
2022-12-07T21:59:08.428Z,75.30
2022-12-07T22:01:38.219Z,75.61
2022-12-07T22:04:10.095Z,75.16
2022-12-07T22:06:37.352Z,76.31
2022-12-07T22:09:05.470Z,75.57
2022-12-07T22:11:32.126Z,74.73
2022-12-07T22:14:17.381Z,75.31
2022-12-07T22:16:43.776Z,75.20
2022-12-07T22:19:10.315Z,75.21
2022-12-07T22:21:36.782Z,76.06
2022-12-07T22:24:04.583Z,75.76
2022-12-07T22:26:31.626Z,75.83
2022-12-07T22:28:58.480Z,75.80
2022-12-07T22:31:25.330Z,74.64
2022-12-07T22:33:51.850Z,75.59
2022-12-07T22:36:18.640Z,76.04
2022-12-07T22:38:46.017Z,75.00
2022-12-07T22:41:19.145Z,76.79
2022-12-07T22:43:46.196Z,74.63
2022-12-07T22:46:12.620Z,75.52
2022-12-07T22:48:39.313Z,76.06
2022-12-07T22:51:05.880Z,75.70
2022-12-07T22:53:32.701Z,75.80
2022-12-07T22:55:59.289Z,76.04
2022-12-07T22:58:25.765Z,76.27
2022-12-07T23:00:52.623Z,76.14
2022-12-07T23:03:19.173Z,75.98
2022-12-07T23:05:48.236Z,75.59
2022-12-07T23:08:15.334Z,76.73
2022-12-07T23:10:43.880Z,77.04
2022-12-07T23:13:31.844Z,76.29
2022-12-07T23:16:15.231Z,76.42
2022-12-07T23:18:42.489Z,75.43
2022-12-07T23:21:09.768Z,75.87
2022-12-07T23:23:36.175Z,77.43
2022-12-07T23:26:07.814Z,76.02
2022-12-07T23:28:35.196Z,76.85
2022-12-07T23:31:06.598Z,77.16
2022-12-07T23:33:33.087Z,77.11
2022-12-07T23:36:18.161Z,76.04
2022-12-07T23:38:46.743Z,76.80
2022-12-07T23:41:15.340Z,77.09
2022-12-07T23:43:42.749Z,76.97
2022-12-07T23:46:12.646Z,75.98
2022-12-07T23:48:39.929Z,76.32
2022-12-07T23:51:08.106Z,76.83
2022-12-07T23:53:39.097Z,77.37
2022-12-07T23:56:06.302Z,76.68
2022-12-07T23:58:32.905Z,76.19
